Time;durP1;ratioP1;P1;durP2;ratioP2;P2;SDS_P1;SDS_P2;PMS_P1;PMS_P2;Temp;Humidity;BMP_temperature;BMP_pressure;BME280_temperature;BME280_humidity;BME280_pressure;Samples;Min_cycle;Max_cycle;Signal;HPM_P1;HPM_P2
2024/02/06 00:00:07;;;;;;;26.15;4.40;;;;;;;13.78;71.13;101477.91;5091143;28;20043;-49
2024/02/06 00:02:33;;;;;;;21.60;4.07;;;;;;;13.77;70.49;101489.28;5091309;28;20153;-48
2024/02/06 00:04:58;;;;;;;25.15;4.45;;;;;;;13.56;71.12;101473.31;5090453;28;20031;-50
2024/02/06 00:07:24;;;;;;;22.10;4.50;;;;;;;13.67;70.86;101470.81;5090748;28;20024;-51
2024/02/06 00:09:49;;;;;;;19.48;4.60;;;;;;;13.84;70.28;101478.84;5090149;28;20043;-50
2024/02/06 00:12:14;;;;;;;22.92;4.28;;;;;;;13.55;71.03;101473.28;5090751;28;20028;-51
2024/02/06 00:14:40;;;;;;;24.15;4.20;;;;;;;13.48;70.76;101474.13;5090612;28;20055;-53
2024/02/06 00:17:06;;;;;;;14.85;3.65;;;;;;;13.91;70.19;101464.91;5091034;28;20040;-49
2024/02/06 00:19:31;;;;;;;22.45;4.30;;;;;;;13.81;69.89;101462.22;5090913;28;20078;-51
2024/02/06 00:21:56;;;;;;;18.10;4.00;;;;;;;13.82;70.24;101466.63;5090242;28;20036;-48
2024/02/06 00:24:22;;;;;;;20.00;3.85;;;;;;;13.70;70.04;101466.50;5091133;28;20502;-48
2024/02/06 00:26:47;;;;;;;24.40;4.18;;;;;;;13.97;69.48;101464.97;5090300;28;20038;-52
2024/02/06 00:29:12;;;;;;;24.17;4.00;;;;;;;14.32;68.37;101463.53;5090435;28;20476;-48
2024/02/06 00:31:37;;;;;;;20.15;4.03;;;;;;;13.71;70.31;101460.41;5090581;28;20052;-49
2024/02/06 00:34:03;;;;;;;17.35;3.60;;;;;;;13.62;71.13;101467.25;5089877;28;20559;-49
2024/02/06 00:36:28;;;;;;;23.95;4.10;;;;;;;13.62;70.61;101457.66;5090851;28;20075;-48
2024/02/06 00:38:53;;;;;;;20.85;4.38;;;;;;;13.51;71.99;101456.69;5090228;28;20036;-53
2024/02/06 00:41:19;;;;;;;23.33;3.80;;;;;;;13.63;71.31;101455.94;5091032;28;20058;-48
2024/02/06 00:43:44;;;;;;;26.63;4.78;;;;;;;13.80;70.55;101454.34;5090558;28;20126;-50
2024/02/06 00:46:09;;;;;;;18.90;4.50;;;;;;;13.71;70.73;101447.28;5090719;28;20478;-50
2024/02/06 00:48:35;;;;;;;21.40;4.40;;;;;;;13.26;72.65;101437.19;5090403;28;20039;-49
2024/02/06 00:51:00;;;;;;;19.92;3.95;;;;;;;13.59;72.00;101436.69;5090414;28;20031;-50
2024/02/06 00:53:25;;;;;;;20.83;4.30;;;;;;;13.82;71.45;101455.25;5091049;28;20032;-48
2024/02/06 00:55:51;;;;;;;23.88;4.43;;;;;;;13.86;70.98;101443.91;5091172;28;20040;-49
2024/02/06 00:58:16;;;;;;;23.85;4.10;;;;;;;13.69;71.95;101435.91;5092761;28;20052;-49
2024/02/06 01:00:42;;;;;;;24.92;4.32;;;;;;;13.71;71.93;101421.09;5090258;28;20043;-48
2024/02/06 01:03:08;;;;;;;30.70;4.80;;;;;;;14.03;70.48;101415.22;5090227;28;20071;-52
2024/02/06 01:05:33;;;;;;;19.73;4.20;;;;;;;14.06;70.69;101417.88;5090417;28;20035;-49
2024/02/06 01:07:59;;;;;;;19.83;4.07;;;;;;;13.72;71.14;101411.50;5089368;28;25580;-51
2024/02/06 01:10:24;;;;;;;21.63;4.32;;;;;;;13.63;71.70;101416.63;5090021;28;20026;-50
2024/02/06 01:12:49;;;;;;;19.52;3.78;;;;;;;13.91;71.07;101428.22;5088287;28;20043;-49
2024/02/06 01:15:15;;;;;;;30.80;4.55;;;;;;;13.59;71.79;101425.34;5089930;28;20024;-50
2024/02/06 01:17:40;;;;;;;22.13;4.15;;;;;;;13.58;71.93;101406.13;5089376;28;20119;-52
2024/02/06 01:20:06;;;;;;;24.17;4.55;;;;;;;13.47;72.45;101405.13;5088848;28;20040;-51
2024/02/06 01:22:32;;;;;;;24.25;4.55;;;;;;;13.59;72.14;101401.75;5090000;28;20038;-50
2024/02/06 01:24:57;;;;;;;18.15;3.78;;;;;;;13.99;70.68;101402.97;5089703;28;20550;-49
2024/02/06 01:27:23;;;;;;;24.90;4.10;;;;;;;13.49;73.12;101413.88;5090201;28;20032;-48
2024/02/06 01:29:49;;;;;;;28.85;4.55;;;;;;;13.47;72.86;101410.38;5089778;28;20024;-49
2024/02/06 01:32:14;;;;;;;19.52;4.07;;;;;;;13.48;73.12;101404.25;5090006;28;20406;-51
2024/02/06 01:34:43;;;;;;;20.38;4.28;;;;;;;13.15;73.83;101411.75;5089348;28;20554;-54
2024/02/06 01:37:08;;;;;;;20.23;3.92;;;;;;;13.53;73.10;101399.97;5089762;28;20051;-50
2024/02/06 01:39:33;;;;;;;24.92;4.63;;;;;;;13.76;71.67;101394.91;5089685;28;20059;-47
2024/02/06 01:42:03;;;;;;;25.95;4.53;;;;;;;13.54;72.90;101403.47;5089555;28;20047;-48
2024/02/06 01:44:28;;;;;;;21.75;4.20;;;;;;;13.79;71.29;101392.31;5092150;28;20081;-49
2024/02/06 01:46:54;;;;;;;18.90;4.25;;;;;;;13.52;72.45;101384.22;5093778;28;20040;-48
2024/02/06 01:49:20;;;;;;;22.95;3.90;;;;;;;13.86;71.52;101372.28;5095933;28;20028;-52
2024/02/06 01:51:46;;;;;;;24.90;4.00;;;;;;;13.75;71.96;101380.94;5099041;28;20085;-49
2024/02/06 01:54:12;;;;;;;22.50;4.38;;;;;;;13.57;72.06;101391.25;5093898;28;20036;-48
2024/02/06 01:56:38;;;;;;;15.25;3.85;;;;;;;13.82;71.39;101379.25;5093733;28;20035;-47
2024/02/06 01:59:05;;;;;;;34.78;4.75;;;;;;;13.78;72.35;101391.44;5093088;28;20024;-49
2024/02/06 02:01:30;;;;;;;26.20;4.60;;;;;;;13.69;72.69;101369.53;5094146;28;20047;-48
2024/02/06 02:03:56;;;;;;;20.15;4.30;;;;;;;14.26;71.36;101369.09;5094821;28;20028;-48
2024/02/06 02:06:24;;;;;;;27.67;4.25;;;;;;;13.70;72.95;101369.53;5094603;28;20028;-51
2024/02/06 02:08:50;;;;;;;24.92;4.50;;;;;;;13.70;72.81;101372.16;5093098;28;20032;-52
2024/02/06 02:11:17;;;;;;;27.17;4.75;;;;;;;13.78;73.16;101354.75;5094069;28;20439;-50
2024/02/06 02:13:42;;;;;;;28.38;4.13;;;;;;;13.83;72.90;101354.81;5093512;28;20043;-47
2024/02/06 02:16:08;;;;;;;26.13;5.10;;;;;;;13.72;72.66;101353.84;5093840;28;20032;-48
2024/02/06 02:18:36;;;;;;;25.88;4.55;;;;;;;13.73;72.73;101360.81;5093347;28;20043;-50
2024/02/06 02:21:07;;;;;;;22.23;4.53;;;;;;;13.93;73.06;101337.38;5090381;28;20036;-47
2024/02/06 02:23:33;;;;;;;28.85;4.85;;;;;;;13.67;73.13;101347.66;5093745;28;20047;-48
2024/02/06 02:25:58;;;;;;;28.92;4.68;;;;;;;14.14;71.78;101334.91;5092398;28;20028;-51
2024/02/06 02:28:24;;;;;;;29.08;4.60;;;;;;;14.05;71.84;101333.09;5092805;28;20101;-47
2024/02/06 02:30:49;;;;;;;26.08;4.47;;;;;;;13.95;73.15;101338.28;5092649;28;20047;-49
2024/02/06 02:33:15;;;;;;;29.27;4.90;;;;;;;13.71;73.58;101338.97;5092719;28;20029;-47
2024/02/06 02:35:41;;;;;;;24.63;4.57;;;;;;;13.72;73.63;101338.97;5079036;22;20124;-47
2024/02/06 02:38:06;;;;;;;27.15;5.32;;;;;;;13.66;73.48;101317.97;5063210;28;20086;-47
2024/02/06 02:40:31;;;;;;;30.50;4.20;;;;;;;13.77;74.21;101321.56;5065138;28;20033;-48
2024/02/06 02:42:58;;;;;;;26.88;4.30;;;;;;;13.45;74.62;101330.00;5066869;28;20131;-47
2024/02/06 02:45:23;;;;;;;34.65;5.18;;;;;;;13.71;73.98;101316.28;5068267;28;20086;-47
2024/02/06 02:47:49;;;;;;;25.27;4.30;;;;;;;14.14;72.76;101316.56;5071177;28;20405;-46
2024/02/06 02:50:14;;;;;;;29.63;4.70;;;;;;;13.91;72.88;101303.28;5071827;28;20032;-50
2024/02/06 02:52:39;;;;;;;24.35;4.47;;;;;;;13.41;74.88;101305.56;5071773;28;20033;-49
2024/02/06 02:55:05;;;;;;;22.48;4.35;;;;;;;13.51;74.96;101298.63;5079561;28;20033;-50
2024/02/06 02:57:30;;;;;;;27.17;4.65;;;;;;;13.44;74.77;101300.31;5071219;28;20039;-48
2024/02/06 02:59:55;;;;;;;26.30;4.72;;;;;;;13.88;73.50;101295.41;5071025;28;20066;-48
2024/02/06 03:02:21;;;;;;;26.77;4.90;;;;;;;13.58;74.05;101298.72;5071937;28;20020;-50
2024/02/06 03:04:46;;;;;;;29.98;4.82;;;;;;;13.57;74.70;101303.91;5071093;28;20102;-49
2024/02/06 03:07:12;;;;;;;23.88;4.47;;;;;;;13.84;73.46;101309.38;5103792;28;20036;-47
2024/02/06 03:09:37;;;;;;;32.65;4.93;;;;;;;13.58;73.66;101296.09;5071126;28;20035;-53
2024/02/06 03:12:03;;;;;;;28.65;5.00;;;;;;;13.85;73.50;101291.88;5070782;28;20445;-47
2024/02/06 03:14:28;;;;;;;25.58;4.85;;;;;;;13.80;74.18;101297.97;5071606;28;20056;-49
2024/02/06 03:16:53;;;;;;;23.13;4.47;;;;;;;13.60;74.63;101286.47;5070858;28;20052;-48
2024/02/06 03:19:18;;;;;;;27.15;5.07;;;;;;;13.31;75.80;101291.47;5071018;28;20079;-46
2024/02/06 03:21:44;;;;;;;32.63;5.25;;;;;;;13.44;75.62;101289.84;5070887;28;20055;-46
2024/02/06 03:24:09;;;;;;;24.00;4.63;;;;;;;13.34;76.06;101265.34;5071255;28;20116;-51
2024/02/06 03:26:35;;;;;;;34.63;5.00;;;;;;;13.58;75.37;101263.78;5071121;28;20399;-48
2024/02/06 03:29:01;;;;;;;28.20;5.72;;;;;;;13.51;75.40;101268.09;5070058;28;20032;-50
2024/02/06 03:31:26;;;;;;;27.10;5.00;;;;;;;13.35;76.11;101276.69;5070953;28;20051;-47
2024/02/06 03:33:52;;;;;;;31.52;5.07;;;;;;;13.51;75.94;101270.69;5070326;28;20032;-51
2024/02/06 03:36:17;;;;;;;29.58;5.10;;;;;;;13.40;76.34;101273.25;5071020;28;20419;-49
2024/02/06 03:38:43;;;;;;;31.33;5.80;;;;;;;13.80;75.42;101261.28;5069789;28;20033;-50
2024/02/06 03:41:08;;;;;;;31.13;5.28;;;;;;;13.76;75.29;101271.75;5069774;28;20039;-49
2024/02/06 03:43:33;;;;;;;38.50;5.30;;;;;;;13.59;75.52;101260.28;5071084;28;20032;-51
2024/02/06 03:45:59;;;;;;;29.88;5.57;;;;;;;13.47;76.55;101273.28;5070582;28;20447;-47
2024/02/06 03:48:24;;;;;;;30.80;5.45;;;;;;;13.26;77.10;101259.16;5071117;28;20119;-47
2024/02/06 03:50:49;;;;;;;28.08;5.90;;;;;;;13.39;77.32;101253.16;5070676;28;20036;-48
2024/02/06 03:53:15;;;;;;;36.80;6.03;;;;;;;13.50;76.66;101254.97;5071071;28;20036;-47
2024/02/06 03:55:41;;;;;;;39.78;6.03;;;;;;;13.28;78.19;101265.28;5070100;28;20036;-47
2024/02/06 03:58:09;;;;;;;32.17;5.57;;;;;;;13.53;77.45;101255.88;5070257;28;20062;-47
2024/02/06 04:00:34;;;;;;;25.40;4.63;;;;;;;13.67;76.01;101242.84;5070693;28;20039;-47
2024/02/06 04:03:00;;;;;;;33.67;5.28;;;;;;;13.62;76.57;101255.94;5070279;28;20041;-52
2024/02/06 04:05:25;;;;;;;31.00;5.13;;;;;;;13.36;77.69;101241.75;5068238;28;20025;-50
2024/02/06 04:07:50;;;;;;;34.45;6.63;;;;;;;13.33;77.61;101239.13;5069550;28;20036;-47
2024/02/06 04:10:16;;;;;;;28.60;5.13;;;;;;;13.67;77.25;101243.72;5070642;28;20401;-48
2024/02/06 04:12:43;;;;;;;35.05;5.45;;;;;;;13.38;77.87;101229.56;5069986;28;20066;-48
2024/02/06 04:15:09;;;;;;;36.30;6.13;;;;;;;13.54;77.20;101246.28;5070510;28;20120;-47
2024/02/06 04:17:35;;;;;;;40.05;5.88;;;;;;;13.42;77.90;101241.81;5069745;28;20055;-49
2024/02/06 04:20:00;;;;;;;30.58;6.13;;;;;;;13.84;76.40;101232.50;5069591;28;20076;-50
2024/02/06 04:22:26;;;;;;;34.85;6.20;;;;;;;13.50;77.02;101244.50;5070258;28;20025;-48
2024/02/06 04:24:51;;;;;;;34.80;5.90;;;;;;;13.54;77.99;101235.81;5068277;28;20063;-48
2024/02/06 04:27:16;;;;;;;31.40;5.45;;;;;;;13.49;77.12;101250.59;5068275;28;20127;-50
2024/02/06 04:29:42;;;;;;;35.75;6.22;;;;;;;13.75;76.45;101230.69;5069349;28;20036;-49
2024/02/06 04:32:07;;;;;;;31.27;5.97;;;;;;;13.64;76.74;101229.75;5069824;28;20033;-50
2024/02/06 04:34:33;;;;;;;34.13;5.43;;;;;;;13.75;76.71;101226.34;5069771;28;20501;-48
2024/02/06 04:36:58;;;;;;;32.08;5.70;;;;;;;14.03;74.90;101227.34;5069173;28;20040;-47
2024/02/06 04:39:24;;;;;;;32.75;5.45;;;;;;;13.89;75.92;101220.28;5069587;28;20096;-49
2024/02/06 04:41:50;;;;;;;35.38;6.13;;;;;;;14.01;75.45;101212.50;5069441;28;20082;-49
2024/02/06 04:44:15;;;;;;;33.10;5.20;;;;;;;13.65;76.77;101197.44;5069942;28;20028;-49
2024/02/06 04:46:40;;;;;;;36.65;5.22;;;;;;;13.64;76.51;101200.94;5068832;28;20074;-50
2024/02/06 04:49:06;;;;;;;34.60;5.65;;;;;;;13.56;76.60;101208.75;5069203;28;20025;-47
2024/02/06 04:51:33;;;;;;;30.08;5.25;;;;;;;13.53;76.92;101210.47;5069646;28;20620;-45
2024/02/06 04:53:58;;;;;;;29.65;5.15;;;;;;;13.90;75.98;101190.59;5069132;28;20048;-47
2024/02/06 04:56:24;;;;;;;42.60;6.10;;;;;;;14.01;75.83;101200.25;5069754;28;20025;-48
2024/02/06 04:58:50;;;;;;;30.55;5.25;;;;;;;13.63;76.49;101199.19;5068870;28;20102;-48
2024/02/06 05:01:17;;;;;;;34.08;5.20;;;;;;;13.65;75.85;101197.44;5070184;28;20067;-47
2024/02/06 05:03:43;;;;;;;35.17;5.40;;;;;;;13.86;75.96;101199.28;5069670;28;20040;-48
2024/02/06 05:06:08;;;;;;;36.10;5.50;;;;;;;13.61;76.17;101204.41;5069492;28;20032;-50
2024/02/06 05:08:34;;;;;;;31.10;5.35;;;;;;;13.96;75.83;101201.13;5069048;28;20402;-48
2024/02/06 05:10:59;;;;;;;35.30;5.10;;;;;;;13.66;76.14;101186.13;5068887;28;20032;-48
2024/02/06 05:13:24;;;;;;;32.03;5.47;;;;;;;14.10;74.88;101191.53;5069258;28;20028;-49
2024/02/06 05:15:50;;;;;;;29.67;5.35;;;;;;;14.09;74.54;101200.28;5068606;28;20047;-49
2024/02/06 05:18:15;;;;;;;33.85;5.80;;;;;;;14.10;74.46;101188.91;5068451;28;20033;-49
2024/02/06 05:20:40;;;;;;;33.20;5.28;;;;;;;13.65;76.16;101177.38;5069068;28;20127;-50
2024/02/06 05:23:06;;;;;;;27.92;5.18;;;;;;;13.43;77.49;101187.69;5069344;28;20032;-50
2024/02/06 05:25:31;;;;;;;33.13;5.35;;;;;;;13.57;76.73;101172.94;5069432;28;20040;-48
2024/02/06 05:27:58;;;;;;;32.25;5.63;;;;;;;13.96;75.84;101172.28;5068518;28;20052;-51
2024/02/06 05:30:24;;;;;;;31.90;5.35;;;;;;;13.94;74.99;101182.75;5069132;28;20487;-50
2024/02/06 05:32:49;;;;;;;41.50;6.07;;;;;;;13.72;76.19;101171.28;5068283;28;20072;-51
2024/02/06 05:35:14;;;;;;;29.88;5.13;;;;;;;13.90;76.31;101170.50;5069176;28;20128;-46
2024/02/06 05:37:40;;;;;;;28.85;5.72;;;;;;;13.52;77.00;101154.59;5068884;28;20037;-50
2024/02/06 05:40:06;;;;;;;38.42;5.75;;;;;;;13.28;77.59;101185.84;5068887;28;20051;-50
2024/02/06 05:42:32;;;;;;;41.00;6.07;;;;;;;13.89;76.35;101173.13;5085085;28;20032;-50
2024/02/06 05:44:57;;;;;;;40.95;6.20;;;;;;;13.74;76.78;101151.19;5089198;28;20040;-50
2024/02/06 05:47:22;;;;;;;32.63;6.00;;;;;;;13.69;76.54;101147.69;5089432;28;20035;-48
2024/02/06 05:49:48;;;;;;;33.85;5.93;;;;;;;13.83;76.86;101158.25;5089105;28;20060;-48
2024/02/06 05:52:13;;;;;;;39.72;6.00;;;;;;;13.55;77.94;101144.13;5089913;28;20032;-49
2024/02/06 05:54:38;;;;;;;40.58;6.43;;;;;;;13.74;76.21;101152.94;5089575;28;20036;-48
2024/02/06 05:57:04;;;;;;;38.25;5.93;;;;;;;13.89;76.06;101147.78;5089025;28;20737;-47
2024/02/06 05:59:29;;;;;;;36.65;6.05;;;;;;;13.83;75.82;101139.91;5089159;28;20425;-47
2024/02/06 06:01:55;;;;;;;36.83;5.38;;;;;;;14.20;74.22;101141.78;5089071;28;20068;-46
2024/02/06 06:04:23;;;;;;;36.20;5.72;;;;;;;14.26;74.04;101134.81;5089715;28;20111;-46
2024/02/06 06:06:48;;;;;;;42.67;6.32;;;;;;;13.96;74.60;101149.56;5088759;28;20044;-47
2024/02/06 06:09:14;;;;;;;25.13;5.25;;;;;;;13.69;76.47;101137.22;5089319;28;20016;-45
2024/02/06 06:11:39;;;;;;;37.65;5.80;;;;;;;13.94;75.57;101111.09;5089457;28;20043;-48
2024/02/06 06:14:04;;;;;;;37.67;5.82;;;;;;;13.98;76.10;101111.09;5087743;28;20097;-51
2024/02/06 06:16:30;;;;;;;36.75;6.13;;;;;;;13.72;76.50;101118.03;5089579;28;20450;-49
2024/02/06 06:18:55;;;;;;;35.65;5.97;;;;;;;13.99;75.57;101106.75;5088578;28;20047;-48
2024/02/06 06:21:20;;;;;;;36.40;5.75;;;;;;;13.90;76.54;101110.22;5089383;28;20039;-48
2024/02/06 06:23:45;;;;;;;37.80;5.45;;;;;;;14.30;74.60;101107.69;5088699;28;20615;-49
2024/02/06 06:26:11;;;;;;;38.08;6.53;;;;;;;13.86;76.13;101094.47;5089611;28;20036;-47
2024/02/06 06:28:36;;;;;;;35.67;5.95;;;;;;;13.85;76.90;101103.19;5088477;28;20118;-45
2024/02/06 06:31:01;;;;;;;34.92;6.35;;;;;;;13.64;76.73;101111.84;5089390;28;20024;-47
2024/02/06 06:33:27;;;;;;;42.30;6.22;;;;;;;13.54;78.32;101107.44;5092807;28;20052;-45
2024/02/06 06:35:52;;;;;;;44.42;6.22;;;;;;;14.02;75.80;101094.53;5090459;28;20063;-46
2024/02/06 06:38:17;;;;;;;33.78;6.07;;;;;;;14.36;74.96;101100.72;5092093;28;20043;-46
2024/02/06 06:40:43;;;;;;;45.97;6.57;;;;;;;14.00;75.95;101103.25;5092279;28;20028;-47
2024/02/06 06:43:09;;;;;;;36.53;6.00;;;;;;;14.05;75.48;101109.38;5092533;28;20034;-47
2024/02/06 06:45:34;;;;;;;35.00;5.90;;;;;;;13.78;77.08;101108.41;5092534;28;20043;-47
2024/02/06 06:48:00;;;;;;;32.97;5.95;;;;;;;14.09;76.20;101104.16;5091626;28;20040;-46
2024/02/06 06:50:25;;;;;;;35.28;6.65;;;;;;;14.21;75.65;101105.91;5092851;28;20107;-47
2024/02/06 06:52:51;;;;;;;34.72;5.45;;;;;;;13.95;75.78;101112.84;5091831;28;20035;-47
2024/02/06 06:55:16;;;;;;;32.45;5.40;;;;;;;13.56;77.45;101093.47;5092084;28;20495;-47
2024/02/06 06:57:42;;;;;;;35.55;6.03;;;;;;;13.63;77.77;101097.00;5091484;28;20517;-49
2024/02/06 07:00:12;;;;;;;42.40;6.35;;;;;;;13.67;77.34;101104.88;5092755;28;20339;-48
2024/02/06 07:02:39;;;;;;;34.13;5.90;;;;;;;13.79;77.43;101097.06;5092211;28;20530;-48
2024/02/06 07:05:06;;;;;;;42.53;5.88;;;;;;;13.91;76.52;101091.00;5091877;28;20490;-47
2024/02/06 07:07:32;;;;;;;38.38;6.10;;;;;;;13.80;76.14;101105.81;5091794;28;20036;-47
2024/02/06 07:09:58;;;;;;;39.67;5.75;;;;;;;13.90;76.81;101093.63;5089672;28;20036;-50
2024/02/06 07:12:25;;;;;;;37.63;6.47;;;;;;;13.94;76.14;101088.41;5091527;28;20028;-48
2024/02/06 07:14:50;;;;;;;32.75;5.63;;;;;;;13.60;77.19;101110.94;5091048;28;20108;-50
2024/02/06 07:17:17;;;;;;;40.25;5.95;;;;;;;13.78;77.61;101107.56;5091241;28;20059;-48
2024/02/06 07:19:43;;;;;;;39.80;5.90;;;;;;;13.78;76.65;101095.31;5090892;28;20423;-51
2024/02/06 07:22:08;;;;;;;45.95;6.00;;;;;;;13.98;76.42;101099.75;5091546;28;20115;-52
2024/02/06 07:24:33;;;;;;;38.50;5.85;;;;;;;13.67;77.62;101080.41;5091636;28;20355;-51
2024/02/06 07:27:00;;;;;;;36.75;5.47;;;;;;;13.86;77.27;101091.84;5089486;28;20071;-52
2024/02/06 07:29:26;;;;;;;40.97;5.95;;;;;;;14.09;75.49;101084.91;5091127;28;20486;-48
2024/02/06 07:31:51;;;;;;;31.55;5.22;;;;;;;13.97;76.18;101090.13;5090648;28;20044;-51
2024/02/06 07:34:18;;;;;;;50.30;6.35;;;;;;;14.07;76.26;101091.94;5091339;28;20036;-50
2024/02/06 07:36:44;;;;;;;44.25;6.82;;;;;;;14.04;75.99;101087.53;5090913;28;20126;-47
2024/02/06 07:39:10;;;;;;;40.00;6.00;;;;;;;13.60;77.60;101073.44;5090823;28;20110;-48
2024/02/06 07:41:35;;;;;;;41.08;6.55;;;;;;;13.65;78.20;101080.44;5091018;28;20112;-45
2024/02/06 07:44:01;;;;;;;39.17;5.90;;;;;;;13.77;77.67;101084.84;5090932;28;20039;-49
2024/02/06 07:46:26;;;;;;;42.00;6.35;;;;;;;13.67;77.58;101077.78;5091315;28;20028;-50
2024/02/06 07:48:54;;;;;;;35.00;6.10;;;;;;;13.83;77.45;101061.28;5090346;28;20112;-49
2024/02/06 07:51:19;;;;;;;51.85;6.28;;;;;;;13.77;78.34;101084.84;5091025;28;20119;-52
2024/02/06 07:53:44;;;;;;;44.47;6.65;;;;;;;13.78;76.91;101082.19;5090488;28;20119;-48
2024/02/06 07:56:10;;;;;;;48.63;7.18;;;;;;;13.54;78.64;101063.78;5090831;28;20043;-46
2024/02/06 07:58:35;;;;;;;38.10;5.55;;;;;;;13.50;78.39;101063.75;5090299;28;20032;-49
2024/02/06 08:01:00;;;;;;;34.65;5.72;;;;;;;13.60;78.61;101069.03;5090464;28;20494;-50
2024/02/06 08:03:26;;;;;;;33.75;5.80;;;;;;;13.88;77.71;101069.16;5091121;28;20032;-47
2024/02/06 08:05:51;;;;;;;35.50;5.13;;;;;;;13.93;76.75;101046.44;5090533;28;20039;-47
2024/02/06 08:08:17;;;;;;;35.67;6.05;;;;;;;14.06;76.39;101058.72;5090449;28;20063;-46
2024/02/06 08:10:42;;;;;;;32.53;5.22;;;;;;;14.00;76.53;101063.94;5090206;28;20032;-48
2024/02/06 08:13:07;;;;;;;36.60;5.18;;;;;;;13.94;77.00;101058.69;5090315;28;20036;-50
2024/02/06 08:15:33;;;;;;;29.45;5.20;;;;;;;14.03;76.22;101056.06;5090276;28;20116;-46
2024/02/06 08:17:59;;;;;;;36.58;5.88;;;;;;;14.23;76.08;101050.00;5089595;28;20077;-50
2024/02/06 08:20:25;;;;;;;29.38;5.00;;;;;;;14.20;75.58;101043.88;5090697;28;20039;-49
2024/02/06 08:22:50;;;;;;;28.35;4.97;;;;;;;14.08;75.22;101056.97;5090035;28;20036;-51
2024/02/06 08:25:18;;;;;;;33.80;4.72;;;;;;;14.09;75.47;101054.34;5090412;28;20027;-48
2024/02/06 08:27:44;;;;;;;28.05;5.05;;;;;;;14.30;74.74;101050.88;5089524;28;20439;-48
2024/02/06 08:30:10;;;;;;;28.17;4.78;;;;;;;13.89;76.67;101047.31;5090065;28;20119;-49
2024/02/06 08:32:35;;;;;;;31.63;4.88;;;;;;;13.91;75.78;101043.81;5090236;28;20115;-47
2024/02/06 08:35:01;;;;;;;34.17;5.13;;;;;;;14.12;75.90;101043.00;5102128;22;20100;-49
2024/02/06 08:37:26;;;;;;;26.90;4.50;;;;;;;13.68;77.37;101048.13;5070586;28;20029;-49
2024/02/06 08:39:52;;;;;;;30.30;4.35;;;;;;;13.79;76.94;101049.91;5069521;28;20028;-50
2024/02/06 08:42:17;;;;;;;30.08;5.53;;;;;;;14.16;76.01;101029.00;5070498;28;20483;-50
2024/02/06 08:44:42;;;;;;;24.17;4.30;;;;;;;14.18;75.41;101030.78;5069624;28;20047;-52
2024/02/06 08:47:08;;;;;;;26.38;4.28;;;;;;;14.04;76.69;101022.00;5070091;28;20123;-50
2024/02/06 08:49:34;;;;;;;33.92;5.35;;;;;;;14.16;76.22;101032.50;5069328;28;20427;-51
2024/02/06 08:51:59;;;;;;;46.72;12.02;;;;;;;14.51;74.79;101016.84;5069447;28;20032;-48
2024/02/06 08:54:24;;;;;;;31.38;5.55;;;;;;;14.45;75.02;101000.22;5069586;28;20028;-48
2024/02/06 08:56:50;;;;;;;30.25;4.97;;;;;;;14.68;74.17;101029.06;5069548;28;20048;-47
2024/02/06 08:59:15;;;;;;;35.03;5.13;;;;;;;14.20;75.70;101012.41;5069386;28;20033;-47
2024/02/06 09:01:42;;;;;;;28.33;4.60;;;;;;;14.21;75.23;101024.63;5069288;28;20044;-50
2024/02/06 09:04:09;;;;;;;28.40;4.28;;;;;;;14.99;73.05;101020.25;5070376;28;20027;-48
2024/02/06 09:06:35;;;;;;;27.67;4.40;;;;;;;14.05;75.95;101008.03;5070066;28;20025;-50
2024/02/06 09:09:00;;;;;;;35.08;5.03;;;;;;;14.73;73.80;101016.81;5068270;28;20045;-53
2024/02/06 09:11:26;;;;;;;27.52;4.47;;;;;;;14.59;74.45;100998.44;5069779;28;20033;-52
2024/02/06 09:13:53;;;;;;;30.83;4.75;;;;;;;15.00;72.79;101008.88;5069472;28;20060;-49
2024/02/06 09:16:22;;;;;;;26.77;4.55;;;;;;;14.59;73.50;101012.44;5069619;28;20028;-50
2024/02/06 09:18:47;;;;;;;24.73;4.13;;;;;;;14.48;74.00;100987.97;5068314;28;20441;-52
2024/02/06 09:21:17;;;;;;;25.23;4.38;;;;;;;15.02;72.58;101000.13;5069507;28;20037;-52
2024/02/06 09:23:43;;;;;;;23.23;3.88;;;;;;;14.60;73.68;100994.94;5069153;28;20087;-51
2024/02/06 09:26:12;;;;;;;25.55;4.60;;;;;;;14.43;74.25;100968.75;5069063;28;20033;-51
2024/02/06 09:28:38;;;;;;;25.08;4.18;;;;;;;14.52;73.63;100963.47;5068378;28;20044;-53
2024/02/06 09:31:04;;;;;;;25.08;4.00;;;;;;;15.00;72.85;100972.13;5068912;28;20052;-52
2024/02/06 09:33:30;;;;;;;25.75;4.05;;;;;;;15.05;72.79;100973.00;5069566;28;20028;-52
2024/02/06 09:35:55;;;;;;;30.17;4.80;;;;;;;14.84;72.41;100973.91;5068722;28;20090;-48
2024/02/06 09:38:20;;;;;;;22.42;3.83;;;;;;;14.95;72.40;100969.50;5068753;28;20032;-54
2024/02/06 09:40:47;;;;;;;30.08;4.88;;;;;;;15.13;71.70;100951.94;5067303;28;20067;-49
2024/02/06 09:43:13;;;;;;;21.80;4.65;;;;;;;14.95;72.17;100937.13;5069153;28;20380;-50
2024/02/06 09:45:39;;;;;;;29.38;4.57;;;;;;;15.20;71.70;100964.16;5069664;28;20029;-48
2024/02/06 09:48:08;;;;;;;27.40;4.28;;;;;;;14.82;72.70;100938.91;5069720;28;20021;-52
2024/02/06 09:50:34;;;;;;;25.25;4.10;;;;;;;15.59;70.04;100940.38;5071911;28;20531;-46
2024/02/06 09:53:00;;;;;;;23.42;4.25;;;;;;;14.81;72.50;100931.94;5070529;28;20032;-49
2024/02/06 09:55:26;;;;;;;28.50;4.82;;;;;;;14.67;73.04;100940.72;5069989;28;20037;-48
2024/02/06 09:57:53;;;;;;;29.95;4.20;;;;;;;14.96;71.88;100923.13;5068617;28;20518;-49
2024/02/06 10:00:19;;;;;;;22.17;4.20;;;;;;;15.42;70.49;100929.06;5069105;28;20025;-49
2024/02/06 10:02:48;;;;;;;28.15;3.85;;;;;;;15.17;70.78;100927.41;5067261;28;20037;-47
2024/02/06 10:05:17;;;;;;;24.23;4.28;;;;;;;15.35;70.20;100943.97;5070904;28;20025;-50
2024/02/06 10:07:47;;;;;;;23.38;4.20;;;;;;;15.26;69.78;100936.13;5072251;28;20040;-47
2024/02/06 10:10:14;;;;;;;25.23;4.63;;;;;;;15.02;70.48;100942.34;5072889;28;20036;-48
2024/02/06 10:12:42;;;;;;;28.17;4.18;;;;;;;15.46;68.72;100935.16;5072866;28;20039;-49
2024/02/06 10:15:11;;;;;;;23.48;4.22;;;;;;;15.27;69.59;100942.25;5056151;28;20039;-52
2024/02/06 10:17:39;;;;;;;20.10;3.80;;;;;;;15.65;68.90;100924.56;5072215;28;20097;-50
2024/02/06 10:20:08;;;;;;;24.02;3.65;;;;;;;15.55;68.98;100927.25;5072115;28;20035;-48
2024/02/06 10:22:34;;;;;;;25.08;4.38;;;;;;;15.42;70.04;100927.31;5072486;28;20042;-51
2024/02/06 10:25:03;;;;;;;25.85;4.45;;;;;;;15.26;70.46;100940.50;5072195;28;20116;-48
2024/02/06 10:27:29;;;;;;;28.05;4.60;;;;;;;15.15;70.49;100919.53;5072187;28;20564;-49
2024/02/06 10:30:02;;;;;;;21.67;4.15;;;;;;;14.97;71.95;100907.38;5071814;28;20044;-51
2024/02/06 10:32:31;;;;;;;27.20;4.25;;;;;;;14.88;72.49;100904.75;5072053;28;20029;-49
2024/02/06 10:35:04;;;;;;;22.13;4.35;;;;;;;15.18;71.84;100909.03;5071594;28;20507;-54
2024/02/06 10:37:33;;;;;;;26.30;5.00;;;;;;;15.46;69.92;100898.38;5072342;28;20029;-47
2024/02/06 10:39:59;;;;;;;26.65;4.78;;;;;;;15.14;70.91;100901.16;5071491;28;20052;-48
2024/02/06 10:42:25;;;;;;;19.38;4.00;;;;;;;15.07;71.39;100902.06;5072263;28;20032;-49
2024/02/06 10:44:55;;;;;;;24.75;3.97;;;;;;;15.20;70.99;100901.13;5071808;28;20040;-49
2024/02/06 10:47:21;;;;;;;19.80;3.65;;;;;;;15.13;71.22;100920.41;5072006;28;20040;-48
2024/02/06 10:49:47;;;;;;;25.70;4.05;;;;;;;15.29;70.55;100933.50;5071500;28;20043;-51
2024/02/06 10:52:12;;;;;;;24.63;4.00;;;;;;;15.31;70.35;100938.72;5072173;28;20560;-48
2024/02/06 10:54:38;;;;;;;18.92;3.60;;;;;;;15.43;70.83;100921.13;5072406;28;20032;-47
2024/02/06 10:57:08;;;;;;;19.83;3.83;;;;;;;15.32;70.89;100916.81;5071619;28;20052;-50
2024/02/06 10:59:41;;;;;;;19.55;3.60;;;;;;;14.84;71.89;100926.66;5071719;28;20032;-50
2024/02/06 11:02:24;;;;;;;24.83;3.50;;;;;;;15.38;70.24;100927.31;5071994;28;20120;-48
2024/02/06 11:04:57;;;;;;;22.25;3.65;;;;;;;15.14;70.77;100935.31;5071821;28;20526;-49
2024/02/06 11:07:27;;;;;;;24.80;3.63;;;;;;;15.26;71.38;100961.50;5071911;28;20032;-47
2024/02/06 11:09:56;;;;;;;19.77;3.20;;;;;;;14.93;72.36;100959.91;5070986;28;20102;-48